Date,TemperatureHighF,TemperatureAvgF,TemperatureLowF,DewpointHighF,DewpointAvgF,DewpointLowF,HumidityHigh,HumidityAvg,HumidityLow,PressureMaxIn,PressureMinIn,WindSpeedMaxMPH,WindSpeedAvgMPH,GustSpeedMaxMPH,PrecipitationSumIn
2013-8-1,86,72,68,77,70,65,98,94,67,30.00,29.80,4,0,13,2.34
2013-8-2,88,74,65,75,67,64,98,81,47,29.97,29.85,2,0,6,0.00
2013-8-3,86,74,66,73,68,65,98,83,53,29.97,29.88,2,0,4,0.00
2013-8-4,84,74,65,70,62,54,97,70,40,30.00,29.88,4,1,12,0.00
2013-8-5,82,70,58,64,60,55,98,74,42,30.09,29.97,2,0,6,0.00
2013-8-6,76,69,65,71,68,64,98,94,84,30.03,29.97,2,0,4,0.47
2013-8-7,87,76,69,75,71,68,98,84,61,30.06,29.97,3,0,7,0.00
2013-8-8,87,78,71,77,74,69,97,85,62,30.03,29.97,2,0,6,0.00
2013-8-9,92,82,74,79,76,73,96,83,63,29.97,29.88,2,1,6,0.00
2013-8-10,86,76,71,77,73,68,98,90,67,30.06,29.94,6,0,22,1.56
2013-8-11,83,75,70,76,73,69,98,93,79,30.09,29.97,1,0,4,0.01
2013-8-12,91,79,70,78,72,69,98,83,50,30.00,29.88,2,0,6,0.00
2013-8-13,87,77,71,78,74,70,98,89,66,29.88,29.71,2,0,6,0.13
2013-8-14,74,67,58,71,56,47,98,71,44,30.09,29.80,4,1,11,0.02
2013-8-15,78,64,54,64,58,53,98,82,44,30.18,30.06,2,0,4,0.00
2013-8-16,77,66,54,65,58,53,98,78,46,30.18,30.09,2,0,6,0.00
2013-8-17,78,67,59,67,62,58,98,85,63,30.21,30.15,3,1,8,0.13
2013-8-18,68,66,64,67,65,64,98,98,97,30.18,30.12,3,1,8,0.97
2013-8-19,72,67,64,71,67,63,98,97,95,30.18,30.06,2,0,5,0.16
2013-8-20,87,75,67,75,70,66,98,88,61,30.15,30.06,1,0,4,0.00
2013-8-21,89,76,67,77,72,66,98,88,61,30.18,30.06,2,0,5,0.00
2013-8-22,90,78,71,74,72,68,98,83,50,30.06,29.94,2,0,5,0.00
2013-8-23,78,69,62,75,68,61,98,96,86,30.09,29.91,4,0,10,2.22
2013-8-24,82,68,58,68,62,57,98,82,47,30.30,30.09,3,1,8,0.00
2013-8-25,81,68,59,68,60,56,98,78,45,30.39,30.24,2,0,6,0.00
2013-8-26,86,69,55,67,62,54,98,79,48,30.30,30.03,2,0,5,0.00
2013-8-27,89,74,62,76,68,60,96,83,56,30.03,29.88,2,0,6,0.00
2013-8-28,78,73,71,75,72,70,98,96,90,29.94,29.80,1,0,6,0.31
2013-8-29,84,74,70,74,72,68,98,93,70,29.97,29.80,3,1,8,0.00
2013-8-30,87,74,65,73,68,64,98,84,57,30.03,29.88,2,0,4,0.00
2013-8-31,88,76,68,77,71,67,97,86,65,29.91,29.80,2,1,6,0.06